createdAt,value
2018-12-17T00:02:09.514Z,29.20
2018-12-17T00:04:38.183Z,31.47
2018-12-17T00:07:06.534Z,33.33
2018-12-17T00:09:34.785Z,35.50
2018-12-17T00:12:02.956Z,28.37
2018-12-17T00:14:31.116Z,32.03
2018-12-17T00:16:59.268Z,33.17
2018-12-17T00:19:27.419Z,31.73
2018-12-17T00:21:55.582Z,39.13
2018-12-17T00:24:23.807Z,40.20
2018-12-17T00:26:51.961Z,35.13
2018-12-17T00:29:20.135Z,27.70
2018-12-17T00:31:48.300Z,33.90
2018-12-17T00:34:16.460Z,27.57
2018-12-17T00:36:44.641Z,41.53
2018-12-17T00:39:12.887Z,33.10
2018-12-17T00:41:47.862Z,30.80
2018-12-17T00:44:16.096Z,34.03
2018-12-17T00:46:44.276Z,29.13
2018-12-17T00:49:12.474Z,45.00
2018-12-17T00:51:40.771Z,41.97
2018-12-17T00:54:09.034Z,37.60
2018-12-17T00:56:37.233Z,36.27
2018-12-17T00:59:05.432Z,38.57
2018-12-17T01:01:33.602Z,56.53
2018-12-17T01:04:01.803Z,54.77
2018-12-17T01:06:30.006Z,50.37
2018-12-17T01:08:58.255Z,50.73
2018-12-17T01:11:26.429Z,40.13
2018-12-17T01:13:54.587Z,32.97
2018-12-17T01:16:22.854Z,43.33
2018-12-17T01:18:51.245Z,38.33
2018-12-17T01:21:19.921Z,32.33
2018-12-17T01:23:48.825Z,37.37
2018-12-17T01:26:17.280Z,32.23
2018-12-17T01:28:45.900Z,37.97
2018-12-17T01:31:14.224Z,34.57
2018-12-17T01:33:42.426Z,34.07
2018-12-17T01:36:10.610Z,38.23
2018-12-17T01:38:38.785Z,32.27
2018-12-17T01:41:06.974Z,40.73
2018-12-17T01:43:35.158Z,44.07
2018-12-17T01:46:03.353Z,37.80
2018-12-17T01:48:31.533Z,30.13
2018-12-17T01:50:59.799Z,33.87
2018-12-17T01:53:27.969Z,31.10
2018-12-17T01:55:56.154Z,32.30
2018-12-17T01:58:29.160Z,52.03
2018-12-17T02:00:54.468Z,31.97
2018-12-17T02:03:22.646Z,35.20
2018-12-17T02:05:50.842Z,38.13
2018-12-17T02:08:19.114Z,42.47
2018-12-17T02:10:47.285Z,33.57
2018-12-17T02:13:15.533Z,46.20
2018-12-17T02:15:43.701Z,32.80
2018-12-17T02:18:11.869Z,31.33
2018-12-17T02:20:40.049Z,30.30
2018-12-17T02:23:08.387Z,34.93
2018-12-17T02:25:36.585Z,38.70
2018-12-17T02:28:04.852Z,33.23
2018-12-17T02:30:33.078Z,29.73
2018-12-17T02:33:01.254Z,29.67
2018-12-17T02:35:29.430Z,42.90
2018-12-17T02:37:57.633Z,40.10
2018-12-17T02:40:25.793Z,29.87
2018-12-17T02:42:53.968Z,32.03
2018-12-17T02:45:22.138Z,39.20
2018-12-17T02:47:50.395Z,39.57
2018-12-17T02:50:18.554Z,41.97
2018-12-17T02:52:46.722Z,35.63
2018-12-17T02:55:15.043Z,42.27
2018-12-17T02:57:43.215Z,25.43
2018-12-17T03:00:11.737Z,34.73
2018-12-17T03:02:39.918Z,30.47
2018-12-17T03:05:08.392Z,26.57
2018-12-17T03:07:36.729Z,33.83
2018-12-17T03:10:05.612Z,29.93
2018-12-17T03:12:33.772Z,26.50
2018-12-17T03:15:02.014Z,24.83
2018-12-17T03:17:30.228Z,31.60
2018-12-17T03:19:58.466Z,28.43
2018-12-17T03:22:26.655Z,38.90
2018-12-17T03:24:54.812Z,29.37
2018-12-17T03:27:22.980Z,34.33
2018-12-17T03:29:51.184Z,39.73
2018-12-17T03:32:19.361Z,34.50
2018-12-17T03:34:47.682Z,36.17
2018-12-17T03:37:15.862Z,40.83
2018-12-17T03:39:44.028Z,27.27
2018-12-17T03:42:12.194Z,27.30
2018-12-17T03:44:40.445Z,27.90
2018-12-17T03:47:08.633Z,31.67
2018-12-17T03:49:36.789Z,27.67
2018-12-17T03:52:04.959Z,30.63
2018-12-17T03:54:33.149Z,29.27
2018-12-17T03:57:01.366Z,29.83
2018-12-17T03:59:29.589Z,25.27
2018-12-17T04:01:57.840Z,29.23
2018-12-17T04:04:26.014Z,28.87
2018-12-17T04:06:54.217Z,31.17
2018-12-17T04:09:22.544Z,26.80
2018-12-17T04:11:50.742Z,24.37
2018-12-17T04:14:18.942Z,37.87
2018-12-17T04:16:47.179Z,30.20
2018-12-17T04:19:15.383Z,36.77
2018-12-17T04:21:43.566Z,32.33
2018-12-17T04:24:11.827Z,35.17
2018-12-17T04:26:40.095Z,36.33
2018-12-17T04:29:08.390Z,35.77
2018-12-17T04:31:36.638Z,37.47
2018-12-17T04:34:05.011Z,26.17
2018-12-17T04:36:33.234Z,22.83
2018-12-17T04:39:01.446Z,24.43
2018-12-17T04:41:29.783Z,23.40
2018-12-17T04:43:58.037Z,23.70
2018-12-17T04:46:26.281Z,26.23
2018-12-17T04:48:54.637Z,24.87
2018-12-17T04:51:23.010Z,27.30
2018-12-17T04:53:51.188Z,28.77
2018-12-17T04:56:19.449Z,26.43
2018-12-17T04:58:47.708Z,21.13
2018-12-17T05:01:15.876Z,22.90
2018-12-17T05:03:44.158Z,27.73
2018-12-17T05:06:12.330Z,25.00
2018-12-17T05:08:40.506Z,24.67
2018-12-17T05:11:08.736Z,25.03
2018-12-17T05:13:37.000Z,27.40
2018-12-17T05:16:05.423Z,20.13
2018-12-17T05:18:33.746Z,29.80
2018-12-17T05:21:02.025Z,29.07
2018-12-17T05:23:30.342Z,29.47
2018-12-17T05:25:58.688Z,33.33
2018-12-17T05:28:26.893Z,17.67
2018-12-17T05:30:55.043Z,16.40
2018-12-17T05:33:23.378Z,23.83
2018-12-17T05:35:51.542Z,18.47
2018-12-17T05:38:19.734Z,94.43
2018-12-17T05:40:48.193Z,52.07
2018-12-17T05:43:16.373Z,20.73
2018-12-17T05:45:44.568Z,17.53
2018-12-17T05:48:12.741Z,22.93
2018-12-17T05:50:41.004Z,15.60
2018-12-17T05:53:09.174Z,17.57
2018-12-17T05:55:37.413Z,16.73
2018-12-17T05:58:05.641Z,24.80
2018-12-17T06:00:33.810Z,19.60
2018-12-17T06:03:02.008Z,18.47
2018-12-17T06:05:30.305Z,22.77
2018-12-17T06:07:58.482Z,18.70
2018-12-17T06:10:26.649Z,12.67
2018-12-17T06:12:54.820Z,14.17
2018-12-17T06:15:23.083Z,16.93
2018-12-17T06:17:51.232Z,18.03
2018-12-17T06:20:19.653Z,22.13
2018-12-17T06:22:47.823Z,19.97
2018-12-17T06:25:16.657Z,17.50
2018-12-17T06:27:44.901Z,19.67
2018-12-17T06:30:13.126Z,16.83
2018-12-17T06:32:41.272Z,18.93
2018-12-17T06:35:09.636Z,22.37
2018-12-17T06:37:37.858Z,15.20
2018-12-17T06:40:10.251Z,17.87
2018-12-17T06:42:36.647Z,17.20
2018-12-17T06:45:05.356Z,20.47
2018-12-17T06:47:33.627Z,21.77
2018-12-17T06:50:01.873Z,24.63
2018-12-17T06:52:30.152Z,19.77
2018-12-17T06:54:58.409Z,22.97
2018-12-17T06:57:26.815Z,26.30
2018-12-17T06:59:55.078Z,18.67
2018-12-17T07:02:23.641Z,20.63
2018-12-17T07:04:51.878Z,19.87
2018-12-17T07:07:20.106Z,20.70
2018-12-17T07:09:48.343Z,32.40
2018-12-17T07:12:16.601Z,36.33
2018-12-17T07:14:44.850Z,27.80
2018-12-17T07:17:13.348Z,25.67
2018-12-17T07:19:41.605Z,27.17
2018-12-17T07:22:09.876Z,24.20
2018-12-17T07:24:38.127Z,24.30
2018-12-17T07:27:06.409Z,23.17
2018-12-17T07:29:34.683Z,22.10
2018-12-17T07:32:03.084Z,18.80
2018-12-17T07:34:31.428Z,23.27
2018-12-17T07:36:59.872Z,26.10
2018-12-17T07:39:28.492Z,32.17
2018-12-17T07:41:56.765Z,25.37
2018-12-17T07:44:25.072Z,31.53
2018-12-17T07:46:53.409Z,29.20
2018-12-17T07:49:21.725Z,34.53
2018-12-17T07:51:49.957Z,28.63
2018-12-17T07:54:18.205Z,31.30
2018-12-17T07:56:46.419Z,21.07
2018-12-17T07:59:14.654Z,15.43
2018-12-17T08:01:42.894Z,37.40
2018-12-17T08:04:11.146Z,19.13
2018-12-17T08:06:39.399Z,21.80
2018-12-17T08:09:08.071Z,20.70
2018-12-17T08:11:36.291Z,54.77
2018-12-17T08:14:04.613Z,30.37
2018-12-17T08:16:32.866Z,19.50
2018-12-17T08:19:01.125Z,29.00
2018-12-17T08:21:29.352Z,26.83
2018-12-17T08:23:57.570Z,40.77
2018-12-17T08:26:25.794Z,18.17
2018-12-17T08:28:54.004Z,81.80
2018-12-17T08:31:22.238Z,17.67
2018-12-17T08:33:50.503Z,57.20
2018-12-17T08:36:18.901Z,38.80
2018-12-17T08:38:47.268Z,24.43
2018-12-17T08:41:15.467Z,60.60
2018-12-17T08:43:43.707Z,24.23
2018-12-17T08:46:12.012Z,31.50
2018-12-17T08:48:40.248Z,33.43
2018-12-17T08:51:08.546Z,18.97
2018-12-17T08:53:36.780Z,14.73
2018-12-17T08:56:05.122Z,15.00
2018-12-17T08:58:33.444Z,20.80
2018-12-17T09:01:01.866Z,50.93
2018-12-17T09:03:30.116Z,15.27
2018-12-17T09:05:58.338Z,34.60
2018-12-17T09:08:26.580Z,27.13
2018-12-17T09:10:54.820Z,31.63
2018-12-17T09:13:23.058Z,19.90
2018-12-17T09:15:51.310Z,17.87
2018-12-17T09:18:19.607Z,15.03
2018-12-17T09:20:47.859Z,15.77
2018-12-17T09:23:16.132Z,15.90
2018-12-17T09:25:44.444Z,17.97
2018-12-17T09:28:12.782Z,8.03
2018-12-17T09:30:41.450Z,26.27
2018-12-17T09:33:10.025Z,27.17
2018-12-17T09:35:38.338Z,12.40
2018-12-17T09:38:06.584Z,10.17
2018-12-17T09:40:34.797Z,13.23
2018-12-17T09:43:03.010Z,17.77
2018-12-17T09:45:31.239Z,16.37
2018-12-17T09:47:59.467Z,24.93
2018-12-17T09:50:27.715Z,16.23
2018-12-17T09:52:55.969Z,13.30
2018-12-17T09:55:24.213Z,15.50
2018-12-17T09:57:52.547Z,17.63
2018-12-17T10:00:25.403Z,18.43
2018-12-17T10:02:51.075Z,8.80
2018-12-17T10:05:19.398Z,9.00
2018-12-17T10:07:47.583Z,6.83
2018-12-17T10:10:15.858Z,13.90
2018-12-17T10:12:44.100Z,9.43
2018-12-17T10:15:12.351Z,10.03
2018-12-17T10:17:40.595Z,5.17
2018-12-17T10:20:09.073Z,8.57
2018-12-17T10:22:37.303Z,6.63
2018-12-17T10:25:06.070Z,4.80
2018-12-17T10:27:34.300Z,7.23
2018-12-17T10:30:02.560Z,5.77
2018-12-17T10:32:30.813Z,4.30
2018-12-17T10:34:59.063Z,8.87
2018-12-17T10:37:27.519Z,5.07
2018-12-17T10:39:55.749Z,9.23
2018-12-17T10:42:23.953Z,5.50
2018-12-17T10:44:52.169Z,5.93
2018-12-17T10:47:20.475Z,5.67
2018-12-17T10:49:48.733Z,21.97
2018-12-17T10:52:16.953Z,8.00
2018-12-17T10:54:45.171Z,7.30
2018-12-17T10:57:13.488Z,7.37
2018-12-17T10:59:41.707Z,12.27
2018-12-17T11:02:15.639Z,11.90
2018-12-17T11:04:48.332Z,10.57
2018-12-17T11:07:16.595Z,15.20
2018-12-17T11:09:44.802Z,8.70
2018-12-17T11:12:13.060Z,11.10
2018-12-17T11:14:41.307Z,6.97
2018-12-17T11:17:09.615Z,7.80
2018-12-17T11:19:38.185Z,9.43
2018-12-17T11:22:06.562Z,8.97
2018-12-17T11:24:35.153Z,8.57
2018-12-17T11:27:04.986Z,13.43
2018-12-17T11:29:33.221Z,11.57
2018-12-17T11:32:01.487Z,6.10
2018-12-17T11:34:29.731Z,7.00
2018-12-17T11:36:57.948Z,10.53
2018-12-17T11:39:26.279Z,8.40
2018-12-17T11:41:54.524Z,8.87
2018-12-17T11:44:22.796Z,10.80
2018-12-17T11:46:51.148Z,16.80
2018-12-17T11:49:19.546Z,9.33
2018-12-17T11:51:47.991Z,10.77
2018-12-17T11:54:16.242Z,11.03
2018-12-17T11:56:57.924Z,10.37
2018-12-17T11:59:26.173Z,10.67
2018-12-17T12:01:54.503Z,10.93
2018-12-17T12:04:23.138Z,8.17
2018-12-17T12:06:51.425Z,9.53
2018-12-17T12:09:26.554Z,13.13
2018-12-17T12:11:54.796Z,11.53
2018-12-17T12:14:23.180Z,14.47
2018-12-17T12:16:51.484Z,12.40
2018-12-17T12:19:19.723Z,10.23
2018-12-17T12:21:47.970Z,10.23
2018-12-17T12:24:16.261Z,10.23
2018-12-17T12:26:44.510Z,9.50
2018-12-17T12:29:12.764Z,8.20
2018-12-17T12:31:41.044Z,10.33
2018-12-17T12:34:09.311Z,8.13
2018-12-17T12:36:37.903Z,8.83
2018-12-17T12:39:06.976Z,7.97
2018-12-17T12:41:35.136Z,9.90
2018-12-17T12:44:08.813Z,12.93
2018-12-17T12:46:33.450Z,10.03
2018-12-17T12:49:01.593Z,10.40
2018-12-17T12:51:32.704Z,10.10
2018-12-17T12:53:59.868Z,11.63
2018-12-17T12:56:28.086Z,8.07
2018-12-17T12:58:56.228Z,8.57
2018-12-17T13:01:24.416Z,8.63
2018-12-17T13:03:52.576Z,9.20
2018-12-17T13:06:20.730Z,8.27
2018-12-17T13:08:48.884Z,12.20
2018-12-17T13:11:17.025Z,13.93
2018-12-17T13:13:45.181Z,7.80
2018-12-17T13:16:13.418Z,17.27
2018-12-17T13:18:41.572Z,14.07
2018-12-17T13:21:09.787Z,13.43
2018-12-17T13:23:37.939Z,9.40
2018-12-17T13:26:06.165Z,10.17
2018-12-17T13:28:34.316Z,12.57
2018-12-17T13:31:02.456Z,10.23
2018-12-17T13:33:30.635Z,9.53
2018-12-17T13:35:58.757Z,11.33
2018-12-17T13:38:26.908Z,9.33
2018-12-17T13:40:55.058Z,8.17
2018-12-17T13:43:23.297Z,9.50
2018-12-17T13:45:51.436Z,9.77
2018-12-17T13:48:19.667Z,8.40
2018-12-17T13:50:49.775Z,11.50
2018-12-17T13:53:23.510Z,10.53
2018-12-17T13:55:51.697Z,8.77
2018-12-17T13:58:19.876Z,13.20
2018-12-17T14:00:47.992Z,9.80
2018-12-17T14:03:16.233Z,13.87
2018-12-17T14:05:44.461Z,7.80
2018-12-17T14:08:12.613Z,8.93
2018-12-17T14:10:46.188Z,12.10
2018-12-17T14:13:14.328Z,10.80
2018-12-17T14:15:47.795Z,7.47
2018-12-17T14:18:21.236Z,10.63
2018-12-17T14:21:54.570Z,11.83
2018-12-17T14:24:23.108Z,13.40
2018-12-17T14:26:51.345Z,17.10
2018-12-17T14:29:19.492Z,9.47
2018-12-17T14:31:47.729Z,12.83
2018-12-17T14:34:15.970Z,11.13
2018-12-17T14:36:44.192Z,15.07
2018-12-17T14:39:12.360Z,13.43
2018-12-17T14:41:40.511Z,7.77
2018-12-17T14:44:14.037Z,11.67
2018-12-17T14:46:47.636Z,11.93
2018-12-17T14:49:15.872Z,11.47
2018-12-17T14:51:44.017Z,15.77
2018-12-17T14:54:12.177Z,11.93
2018-12-17T14:56:40.324Z,15.60
2018-12-17T14:59:08.497Z,11.47
2018-12-17T15:01:36.689Z,14.07
2018-12-17T15:04:04.850Z,10.17
2018-12-17T15:06:33.076Z,7.43
2018-12-17T15:09:01.224Z,13.13
2018-12-17T15:11:29.382Z,11.03
2018-12-17T15:13:57.608Z,11.30
2018-12-17T15:16:25.836Z,12.33
2018-12-17T15:18:53.996Z,13.13
2018-12-17T15:21:22.158Z,10.07
2018-12-17T15:23:50.323Z,13.77
2018-12-17T15:26:18.545Z,17.37
2018-12-17T15:28:46.848Z,9.50
2018-12-17T15:31:15.073Z,14.20
2018-12-17T15:33:43.381Z,13.27
2018-12-17T15:36:11.621Z,10.37
2018-12-17T15:38:39.756Z,13.17
2018-12-17T15:41:07.911Z,8.47
2018-12-17T15:43:36.057Z,13.93
2018-12-17T15:46:04.233Z,28.63
2018-12-17T15:48:32.378Z,15.03
2018-12-17T15:51:00.533Z,15.10
2018-12-17T15:53:28.672Z,14.53
2018-12-17T15:55:56.850Z,16.60
2018-12-17T15:58:24.993Z,8.97
2018-12-17T16:00:53.156Z,14.97
2018-12-17T16:03:21.331Z,11.73
2018-12-17T16:05:49.536Z,15.20
2018-12-17T16:08:17.685Z,13.50
2018-12-17T16:10:45.948Z,9.83
2018-12-17T16:13:14.098Z,12.80
2018-12-17T16:15:42.251Z,12.10
2018-12-17T16:18:10.395Z,11.60
2018-12-17T16:20:38.628Z,11.57
2018-12-17T16:23:06.862Z,12.63
2018-12-17T16:25:35.026Z,13.30
2018-12-17T16:28:03.169Z,9.87
2018-12-17T16:30:31.333Z,15.93
2018-12-17T16:32:59.475Z,13.77
2018-12-17T16:35:27.735Z,26.63
2018-12-17T16:37:55.887Z,33.30
2018-12-17T16:40:24.337Z,21.23
2018-12-17T16:42:52.554Z,18.40
2018-12-17T16:45:20.794Z,15.20
2018-12-17T16:47:49.042Z,22.70
2018-12-17T16:50:18.113Z,17.07
2018-12-17T16:52:46.286Z,17.17
2018-12-17T16:55:14.430Z,12.93
2018-12-17T16:57:42.595Z,14.37
2018-12-17T17:00:10.887Z,9.83
2018-12-17T17:02:39.120Z,11.03
2018-12-17T17:05:07.459Z,14.20
2018-12-17T17:07:35.621Z,9.10
2018-12-17T17:10:05.705Z,11.90
2018-12-17T17:12:34.251Z,15.30
2018-12-17T17:15:02.819Z,9.80
2018-12-17T17:17:30.968Z,9.93
2018-12-17T17:19:59.202Z,13.03
2018-12-17T17:22:27.380Z,10.07
2018-12-17T17:24:55.532Z,12.13
2018-12-17T17:27:23.691Z,9.10
2018-12-17T17:29:51.823Z,8.47
2018-12-17T17:32:19.989Z,13.50
2018-12-17T17:34:48.134Z,9.23
2018-12-17T17:37:16.293Z,11.80
2018-12-17T17:39:44.518Z,9.03
2018-12-17T17:42:12.686Z,11.00
2018-12-17T17:44:40.824Z,13.57
2018-12-17T17:47:08.977Z,8.50
2018-12-17T17:49:37.141Z,9.77
2018-12-17T17:52:05.378Z,14.73
2018-12-17T17:54:33.524Z,10.23
2018-12-17T17:57:01.743Z,10.03
2018-12-17T17:59:29.956Z,9.03
2018-12-17T18:01:58.193Z,15.87
2018-12-17T18:04:26.345Z,9.10
2018-12-17T18:06:54.489Z,8.00
2018-12-17T18:09:22.628Z,9.40
2018-12-17T18:11:50.827Z,6.53
2018-12-17T18:14:18.986Z,11.90
2018-12-17T18:16:47.220Z,9.10
2018-12-17T18:19:15.378Z,9.93
2018-12-17T18:21:43.522Z,9.13
2018-12-17T18:24:11.690Z,9.50
2018-12-17T18:26:39.836Z,6.17
2018-12-17T18:29:07.997Z,9.10
2018-12-17T18:31:36.249Z,6.97
2018-12-17T18:34:04.490Z,7.03
2018-12-17T18:36:32.641Z,10.03
2018-12-17T18:39:00.969Z,9.43
2018-12-17T18:41:29.230Z,8.90
2018-12-17T18:43:57.594Z,12.83
2018-12-17T18:46:25.768Z,9.30
2018-12-17T18:48:54.130Z,41.27
2018-12-17T18:51:22.285Z,17.17
2018-12-17T18:53:50.546Z,17.03
2018-12-17T18:56:18.714Z,13.97
2018-12-17T18:58:46.907Z,38.63
2018-12-17T19:01:15.073Z,19.33
2018-12-17T19:03:43.224Z,11.57
2018-12-17T19:06:11.471Z,9.73
2018-12-17T19:08:39.625Z,12.10
2018-12-17T19:11:07.945Z,10.43
2018-12-17T19:13:36.132Z,10.73
2018-12-17T19:16:04.279Z,8.93
2018-12-17T19:18:32.454Z,12.63
2018-12-17T19:21:00.581Z,7.77
2018-12-17T19:23:28.766Z,10.03
2018-12-17T19:25:56.912Z,14.87
2018-12-17T19:28:25.160Z,13.17
2018-12-17T19:30:53.308Z,12.43
2018-12-17T19:33:21.463Z,7.87
2018-12-17T19:35:49.682Z,11.97
2018-12-17T19:38:17.847Z,9.47
2018-12-17T19:40:46.098Z,18.73
2018-12-17T19:43:14.302Z,22.47
2018-12-17T19:45:42.466Z,23.97
2018-12-17T19:48:10.721Z,17.17
2018-12-17T19:50:38.894Z,23.57
2018-12-17T19:53:07.073Z,34.27
2018-12-17T19:55:35.208Z,27.93
2018-12-17T19:58:03.352Z,30.80
2018-12-17T20:00:31.569Z,30.57
2018-12-17T20:03:00.180Z,39.83
2018-12-17T20:05:28.353Z,17.70
2018-12-17T20:07:56.504Z,35.87
2018-12-17T20:10:26.685Z,45.80
2018-12-17T20:12:55.264Z,22.30
2018-12-17T20:15:23.513Z,58.43
2018-12-17T20:17:51.814Z,61.53
2018-12-17T20:20:20.086Z,19.90
2018-12-17T20:22:48.235Z,11.83
2018-12-17T20:25:16.376Z,12.27
2018-12-17T20:27:44.533Z,16.70
2018-12-17T20:30:13.406Z,11.33
2018-12-17T20:32:41.545Z,12.57
2018-12-17T20:35:09.902Z,12.13
2018-12-17T20:37:38.150Z,72.00
2018-12-17T20:40:08.326Z,10.97
2018-12-17T20:42:36.552Z,9.33
2018-12-17T20:45:05.967Z,8.67
2018-12-17T20:47:34.196Z,10.50
2018-12-17T20:50:02.424Z,8.30
2018-12-17T20:52:30.595Z,12.33
2018-12-17T20:54:58.780Z,41.60
2018-12-17T20:57:27.007Z,15.50
2018-12-17T20:59:55.156Z,21.20
2018-12-17T21:02:23.389Z,15.27
2018-12-17T21:04:51.538Z,9.27
2018-12-17T21:07:19.826Z,14.77
2018-12-17T21:09:48.138Z,10.37
2018-12-17T21:12:16.279Z,13.73
2018-12-17T21:14:44.422Z,8.93
2018-12-17T21:17:12.743Z,12.70
2018-12-17T21:19:40.903Z,11.90
2018-12-17T21:22:10.468Z,13.83
2018-12-17T21:24:38.690Z,11.77
2018-12-17T21:27:06.993Z,14.97
2018-12-17T21:29:35.149Z,22.00
2018-12-17T21:32:03.322Z,15.63
2018-12-17T21:34:31.476Z,18.00
2018-12-17T21:36:59.725Z,19.90
2018-12-17T21:39:27.871Z,17.57
2018-12-17T21:41:56.022Z,20.27
2018-12-17T21:44:24.345Z,16.77
2018-12-17T21:46:52.941Z,12.17
2018-12-17T21:49:21.139Z,12.30
2018-12-17T21:51:49.298Z,12.33
2018-12-17T21:54:17.454Z,14.90
2018-12-17T21:56:45.699Z,9.13
2018-12-17T21:59:13.956Z,13.10
2018-12-17T22:01:42.146Z,13.97
2018-12-17T22:04:10.373Z,14.77
2018-12-17T22:06:38.542Z,10.53
2018-12-17T22:09:07.601Z,10.37
2018-12-17T22:11:36.174Z,11.47
2018-12-17T22:14:04.547Z,17.60
2018-12-17T22:16:32.709Z,13.70
2018-12-17T22:19:00.913Z,12.53
2018-12-17T22:21:29.093Z,10.23
2018-12-17T22:23:57.247Z,14.70
2018-12-17T22:26:29.189Z,12.37
2018-12-17T22:28:55.617Z,10.83
2018-12-17T22:31:23.811Z,13.50
2018-12-17T22:33:52.012Z,12.70
2018-12-17T22:36:20.236Z,11.70
2018-12-17T22:38:48.398Z,11.90
2018-12-17T22:41:16.535Z,13.90
2018-12-17T22:43:44.691Z,8.77
2018-12-17T22:46:12.833Z,23.30
2018-12-17T22:48:41.006Z,10.47
2018-12-17T22:51:09.155Z,16.40
2018-12-17T22:53:37.319Z,12.67
2018-12-17T22:56:05.474Z,12.43
2018-12-17T22:58:33.706Z,9.93
2018-12-17T23:01:01.965Z,15.27
2018-12-17T23:03:30.170Z,14.07
2018-12-17T23:05:58.342Z,11.40
2018-12-17T23:08:26.498Z,16.97
2018-12-17T23:11:06.053Z,16.30
2018-12-17T23:13:45.505Z,17.23
2018-12-17T23:16:25.164Z,12.73
2018-12-17T23:18:52.494Z,11.53
2018-12-17T23:21:20.720Z,27.27
2018-12-17T23:23:49.174Z,18.03
2018-12-17T23:26:17.395Z,27.63
2018-12-17T23:28:45.648Z,19.93
2018-12-17T23:31:13.867Z,28.73
2018-12-17T23:33:42.192Z,23.27
2018-12-17T23:36:10.427Z,35.10
2018-12-17T23:38:38.589Z,44.90
2018-12-17T23:41:06.858Z,22.93
2018-12-17T23:43:35.087Z,22.37
2018-12-17T23:46:03.357Z,17.63
2018-12-17T23:48:31.518Z,25.23
2018-12-17T23:50:59.688Z,20.87
2018-12-17T23:53:27.914Z,19.87
2018-12-17T23:55:56.248Z,55.07
2018-12-17T23:58:24.400Z,30.60
